sensor_id;sensor_type;location;lat;lon;timestamp;pressure;altitude;pressure_sealevel;temperature;humidity
48156;BME280;35568;48.104;11.782;2023-05-22T00:00:30;94983.20;;;16.01;47.93
48156;BME280;35568;48.104;11.782;2023-05-22T00:02:57;94986.87;;;15.79;48.76
48156;BME280;35568;48.104;11.782;2023-05-22T00:05:24;94985.07;;;16.17;48.69
48156;BME280;35568;48.104;11.782;2023-05-22T00:07:51;94987.32;;;16.07;48.17
48156;BME280;35568;48.104;11.782;2023-05-22T00:10:18;94988.86;;;15.96;48.30
48156;BME280;35568;48.104;11.782;2023-05-22T00:12:46;94988.89;;;16.04;48.29
48156;BME280;35568;48.104;11.782;2023-05-22T00:15:13;94984.89;;;16.22;47.86
48156;BME280;35568;48.104;11.782;2023-05-22T00:17:40;94985.47;;;15.89;47.89
48156;BME280;35568;48.104;11.782;2023-05-22T00:20:08;94985.93;;;16.21;47.63
48156;BME280;35568;48.104;11.782;2023-05-22T00:22:35;94986.06;;;16.27;47.73
48156;BME280;35568;48.104;11.782;2023-05-22T00:25:04;94983.95;;;16.09;48.06
48156;BME280;35568;48.104;11.782;2023-05-22T00:27:32;94981.62;;;16.18;47.94
48156;BME280;35568;48.104;11.782;2023-05-22T00:30:00;94979.19;;;16.60;48.08
48156;BME280;35568;48.104;11.782;2023-05-22T00:32:27;94981.01;;;16.08;48.22
48156;BME280;35568;48.104;11.782;2023-05-22T00:34:54;94979.28;;;16.11;48.48
48156;BME280;35568;48.104;11.782;2023-05-22T00:37:21;94979.49;;;16.24;48.01
48156;BME280;35568;48.104;11.782;2023-05-22T00:39:48;94980.00;;;16.09;47.78
48156;BME280;35568;48.104;11.782;2023-05-22T00:42:15;94979.24;;;15.93;48.21
48156;BME280;35568;48.104;11.782;2023-05-22T00:44:43;94980.18;;;16.04;48.46
48156;BME280;35568;48.104;11.782;2023-05-22T00:47:09;94983.40;;;15.76;49.06
48156;BME280;35568;48.104;11.782;2023-05-22T00:49:37;94978.18;;;15.61;49.60
48156;BME280;35568;48.104;11.782;2023-05-22T00:52:04;94978.70;;;14.72;50.24
48156;BME280;35568;48.104;11.782;2023-05-22T00:54:32;94975.83;;;14.69;50.70
48156;BME280;35568;48.104;11.782;2023-05-22T00:56:59;94976.81;;;14.73;51.25
48156;BME280;35568;48.104;11.782;2023-05-22T00:59:27;94974.67;;;14.35;51.55
48156;BME280;35568;48.104;11.782;2023-05-22T01:01:54;94973.49;;;14.92;51.14
48156;BME280;35568;48.104;11.782;2023-05-22T01:04:21;94971.68;;;15.05;50.53
48156;BME280;35568;48.104;11.782;2023-05-22T01:06:48;94971.99;;;14.79;50.73
48156;BME280;35568;48.104;11.782;2023-05-22T01:09:15;94972.70;;;14.89;50.53
48156;BME280;35568;48.104;11.782;2023-05-22T01:11:50;94970.89;;;14.90;50.35
48156;BME280;35568;48.104;11.782;2023-05-22T01:14:25;94970.96;;;15.16;50.06
48156;BME280;35568;48.104;11.782;2023-05-22T01:17:01;94971.00;;;15.23;49.69
48156;BME280;35568;48.104;11.782;2023-05-22T01:19:51;94977.22;;;14.89;49.51
48156;BME280;35568;48.104;11.782;2023-05-22T01:22:30;94981.52;;;15.10;49.32
48156;BME280;35568;48.104;11.782;2023-05-22T01:25:15;94984.61;;;14.49;50.14
48156;BME280;35568;48.104;11.782;2023-05-22T01:28:00;94988.45;;;14.70;50.27
48156;BME280;35568;48.104;11.782;2023-05-22T01:31:01;94987.72;;;14.88;49.79
48156;BME280;35568;48.104;11.782;2023-05-22T01:33:34;94989.50;;;15.04;49.23
48156;BME280;35568;48.104;11.782;2023-05-22T01:36:06;94989.60;;;15.14;49.28
48156;BME280;35568;48.104;11.782;2023-05-22T01:38:35;94989.76;;;15.15;50.32
48156;BME280;35568;48.104;11.782;2023-05-22T01:41:03;94991.28;;;14.92;50.06
48156;BME280;35568;48.104;11.782;2023-05-22T01:43:31;94995.50;;;14.87;50.10
48156;BME280;35568;48.104;11.782;2023-05-22T01:45:58;94998.90;;;14.38;51.16
48156;BME280;35568;48.104;11.782;2023-05-22T01:48:25;94997.84;;;14.29;50.68
48156;BME280;35568;48.104;11.782;2023-05-22T01:50:53;94997.92;;;14.54;50.69
48156;BME280;35568;48.104;11.782;2023-05-22T01:53:29;94999.40;;;14.70;51.04
48156;BME280;35568;48.104;11.782;2023-05-22T01:56:02;95003.98;;;14.66;51.40
48156;BME280;35568;48.104;11.782;2023-05-22T01:58:33;95005.03;;;14.58;51.18
48156;BME280;35568;48.104;11.782;2023-05-22T02:01:01;95004.90;;;14.49;51.31
48156;BME280;35568;48.104;11.782;2023-05-22T02:03:30;95007.98;;;14.26;51.68
48156;BME280;35568;48.104;11.782;2023-05-22T02:06:00;95010.76;;;14.21;51.69
48156;BME280;35568;48.104;11.782;2023-05-22T02:08:28;95015.81;;;14.04;51.79
48156;BME280;35568;48.104;11.782;2023-05-22T02:10:55;95018.50;;;14.37;51.79
48156;BME280;35568;48.104;11.782;2023-05-22T02:13:23;95017.14;;;14.20;51.72
48156;BME280;35568;48.104;11.782;2023-05-22T02:15:50;95018.89;;;14.05;51.60
48156;BME280;35568;48.104;11.782;2023-05-22T02:18:18;95018.75;;;13.58;52.45
48156;BME280;35568;48.104;11.782;2023-05-22T02:20:45;95017.66;;;13.31;52.96
48156;BME280;35568;48.104;11.782;2023-05-22T02:23:12;95015.42;;;13.03;53.17
48156;BME280;35568;48.104;11.782;2023-05-22T02:25:39;95013.88;;;13.20;52.97
48156;BME280;35568;48.104;11.782;2023-05-22T02:28:07;95014.39;;;13.58;52.25
48156;BME280;35568;48.104;11.782;2023-05-22T02:30:34;95019.30;;;13.68;52.34
48156;BME280;35568;48.104;11.782;2023-05-22T02:33:01;95021.58;;;13.28;52.80
48156;BME280;35568;48.104;11.782;2023-05-22T02:35:28;95020.96;;;13.80;52.37
48156;BME280;35568;48.104;11.782;2023-05-22T02:37:55;95018.09;;;13.85;51.74
48156;BME280;35568;48.104;11.782;2023-05-22T02:40:22;95017.15;;;13.84;51.65
48156;BME280;35568;48.104;11.782;2023-05-22T02:42:49;95015.91;;;13.90;51.24
48156;BME280;35568;48.104;11.782;2023-05-22T02:45:16;95015.10;;;13.98;50.64
48156;BME280;35568;48.104;11.782;2023-05-22T02:47:43;95014.63;;;13.81;51.24
48156;BME280;35568;48.104;11.782;2023-05-22T02:50:10;95013.95;;;13.82;50.71
48156;BME280;35568;48.104;11.782;2023-05-22T02:52:37;95013.47;;;13.97;50.66
48156;BME280;35568;48.104;11.782;2023-05-22T02:55:05;95016.34;;;14.02;50.07
48156;BME280;35568;48.104;11.782;2023-05-22T02:57:32;95016.80;;;13.25;51.70
48156;BME280;35568;48.104;11.782;2023-05-22T02:59:59;95018.01;;;13.18;52.20
48156;BME280;35568;48.104;11.782;2023-05-22T03:03:01;95022.36;;;13.25;51.92
48156;BME280;35568;48.104;11.782;2023-05-22T03:05:28;95021.54;;;13.55;51.64
48156;BME280;35568;48.104;11.782;2023-05-22T03:07:54;95021.94;;;13.94;51.17
48156;BME280;35568;48.104;11.782;2023-05-22T03:10:21;95018.99;;;13.22;51.91
48156;BME280;35568;48.104;11.782;2023-05-22T03:12:49;95016.11;;;13.40;52.39
48156;BME280;35568;48.104;11.782;2023-05-22T03:15:16;95012.40;;;13.19;52.83
48156;BME280;35568;48.104;11.782;2023-05-22T03:17:43;95010.32;;;13.10;52.85
48156;BME280;35568;48.104;11.782;2023-05-22T03:20:11;95008.70;;;12.96;52.61
48156;BME280;35568;48.104;11.782;2023-05-22T03:22:38;95011.14;;;13.14;52.47
48156;BME280;35568;48.104;11.782;2023-05-22T03:25:06;95015.60;;;13.63;51.86
48156;BME280;35568;48.104;11.782;2023-05-22T03:27:33;95017.31;;;13.25;51.49
48156;BME280;35568;48.104;11.782;2023-05-22T03:30:01;95021.69;;;13.29;52.15
48156;BME280;35568;48.104;11.782;2023-05-22T03:32:27;95021.20;;;13.28;52.18
48156;BME280;35568;48.104;11.782;2023-05-22T03:34:54;95024.22;;;13.32;52.47
48156;BME280;35568;48.104;11.782;2023-05-22T03:37:20;95027.57;;;12.67;52.76
48156;BME280;35568;48.104;11.782;2023-05-22T03:39:47;95028.01;;;13.01;53.11
48156;BME280;35568;48.104;11.782;2023-05-22T03:42:14;95029.83;;;13.03;53.12
48156;BME280;35568;48.104;11.782;2023-05-22T03:44:41;95030.75;;;13.19;53.09
48156;BME280;35568;48.104;11.782;2023-05-22T03:47:08;95029.51;;;13.18;53.12
48156;BME280;35568;48.104;11.782;2023-05-22T03:49:35;95028.36;;;13.00;53.29
48156;BME280;35568;48.104;11.782;2023-05-22T03:52:02;95026.28;;;12.86;53.37
48156;BME280;35568;48.104;11.782;2023-05-22T03:54:29;95023.62;;;12.84;53.40
48156;BME280;35568;48.104;11.782;2023-05-22T03:56:56;95023.75;;;12.76;53.38
48156;BME280;35568;48.104;11.782;2023-05-22T03:59:22;95025.98;;;12.95;53.33
48156;BME280;35568;48.104;11.782;2023-05-22T04:01:49;95027.74;;;12.94;53.09
48156;BME280;35568;48.104;11.782;2023-05-22T04:04:15;95028.22;;;13.24;52.35
48156;BME280;35568;48.104;11.782;2023-05-22T04:06:42;95035.99;;;13.84;51.81
48156;BME280;35568;48.104;11.782;2023-05-22T04:09:10;95035.76;;;13.59;51.18
48156;BME280;35568;48.104;11.782;2023-05-22T04:11:38;95039.07;;;13.88;50.84
48156;BME280;35568;48.104;11.782;2023-05-22T04:14:05;95044.21;;;14.02;50.31
48156;BME280;35568;48.104;11.782;2023-05-22T04:16:33;95046.62;;;14.27;49.96
48156;BME280;35568;48.104;11.782;2023-05-22T04:19:00;95046.74;;;14.24;49.63
48156;BME280;35568;48.104;11.782;2023-05-22T04:21:27;95044.38;;;14.59;49.24
48156;BME280;35568;48.104;11.782;2023-05-22T04:23:53;95045.43;;;14.22;49.32
48156;BME280;35568;48.104;11.782;2023-05-22T04:26:21;95042.09;;;14.00;49.47
48156;BME280;35568;48.104;11.782;2023-05-22T04:28:48;95042.50;;;14.28;49.64
48156;BME280;35568;48.104;11.782;2023-05-22T04:31:15;95043.07;;;14.00;49.94
48156;BME280;35568;48.104;11.782;2023-05-22T04:33:41;95044.59;;;14.03;49.81
48156;BME280;35568;48.104;11.782;2023-05-22T04:36:08;95046.66;;;14.15;49.59
48156;BME280;35568;48.104;11.782;2023-05-22T04:38:36;95049.94;;;14.31;49.28
48156;BME280;35568;48.104;11.782;2023-05-22T04:41:03;95051.59;;;14.59;48.86
48156;BME280;35568;48.104;11.782;2023-05-22T04:43:29;95054.09;;;14.40;48.53
48156;BME280;35568;48.104;11.782;2023-05-22T04:45:56;95056.18;;;15.12;47.96
48156;BME280;35568;48.104;11.782;2023-05-22T04:48:23;95054.99;;;14.98;47.87
48156;BME280;35568;48.104;11.782;2023-05-22T04:50:50;95053.26;;;15.20;47.20
48156;BME280;35568;48.104;11.782;2023-05-22T04:53:16;95055.33;;;15.01;47.00
48156;BME280;35568;48.104;11.782;2023-05-22T04:55:43;95057.10;;;14.81;46.73
48156;BME280;35568;48.104;11.782;2023-05-22T04:58:11;95058.68;;;14.90;47.00
48156;BME280;35568;48.104;11.782;2023-05-22T05:00:38;95060.88;;;14.91;46.88
48156;BME280;35568;48.104;11.782;2023-05-22T05:03:05;95060.38;;;15.00;46.40
48156;BME280;35568;48.104;11.782;2023-05-22T05:05:32;95057.58;;;15.22;46.01
48156;BME280;35568;48.104;11.782;2023-05-22T05:07:59;95063.55;;;15.31;46.18
48156;BME280;35568;48.104;11.782;2023-05-22T05:10:26;95066.98;;;15.99;45.84
48156;BME280;35568;48.104;11.782;2023-05-22T05:12:53;95062.47;;;16.25;45.36
48156;BME280;35568;48.104;11.782;2023-05-22T05:15:20;95062.36;;;16.02;45.03
48156;BME280;35568;48.104;11.782;2023-05-22T05:17:47;95061.06;;;16.29;43.98
48156;BME280;35568;48.104;11.782;2023-05-22T05:20:14;95058.11;;;16.46;43.93
48156;BME280;35568;48.104;11.782;2023-05-22T05:22:41;95062.57;;;16.82;43.37
48156;BME280;35568;48.104;11.782;2023-05-22T05:25:08;95063.85;;;17.01;43.16
48156;BME280;35568;48.104;11.782;2023-05-22T05:27:35;95064.00;;;16.88;42.22
48156;BME280;35568;48.104;11.782;2023-05-22T05:30:03;95066.55;;;16.47;42.87
48156;BME280;35568;48.104;11.782;2023-05-22T05:32:30;95064.84;;;16.79;42.88
48156;BME280;35568;48.104;11.782;2023-05-22T05:34:57;95067.30;;;16.90;42.85
48156;BME280;35568;48.104;11.782;2023-05-22T05:37:24;95069.93;;;17.64;42.37
48156;BME280;35568;48.104;11.782;2023-05-22T05:39:51;95069.07;;;17.49;42.04
48156;BME280;35568;48.104;11.782;2023-05-22T05:42:17;95069.40;;;17.92;41.93
48156;BME280;35568;48.104;11.782;2023-05-22T05:44:44;95069.29;;;18.18;41.72
48156;BME280;35568;48.104;11.782;2023-05-22T05:47:11;95067.34;;;18.13;41.36
48156;BME280;35568;48.104;11.782;2023-05-22T05:49:38;95067.90;;;18.50;40.95
48156;BME280;35568;48.104;11.782;2023-05-22T05:52:05;95067.60;;;18.55;40.95
48156;BME280;35568;48.104;11.782;2023-05-22T05:54:32;95064.84;;;18.74;40.59
48156;BME280;35568;48.104;11.782;2023-05-22T05:57:00;95063.35;;;19.23;39.93
48156;BME280;35568;48.104;11.782;2023-05-22T05:59:26;95068.33;;;19.64;39.24
48156;BME280;35568;48.104;11.782;2023-05-22T06:01:54;95069.06;;;19.71;38.97
48156;BME280;35568;48.104;11.782;2023-05-22T06:04:21;95066.26;;;20.27;38.51
48156;BME280;35568;48.104;11.782;2023-05-22T06:06:48;95065.84;;;20.48;37.78
48156;BME280;35568;48.104;11.782;2023-05-22T06:09:15;95063.00;;;20.21;38.40
48156;BME280;35568;48.104;11.782;2023-05-22T06:11:42;95064.48;;;20.41;37.91
48156;BME280;35568;48.104;11.782;2023-05-22T06:14:08;95061.89;;;20.56;38.03
48156;BME280;35568;48.104;11.782;2023-05-22T06:16:36;95061.73;;;20.48;37.41
48156;BME280;35568;48.104;11.782;2023-05-22T06:19:03;95060.74;;;20.60;36.75
48156;BME280;35568;48.104;11.782;2023-05-22T06:21:35;95062.04;;;21.26;36.52
48156;BME280;35568;48.104;11.782;2023-05-22T06:24:03;95063.32;;;21.37;36.13
48156;BME280;35568;48.104;11.782;2023-05-22T06:26:31;95062.29;;;21.66;35.88
48156;BME280;35568;48.104;11.782;2023-05-22T06:28:59;95061.43;;;21.52;35.76
48156;BME280;35568;48.104;11.782;2023-05-22T06:31:26;95061.96;;;22.03;35.38
48156;BME280;35568;48.104;11.782;2023-05-22T06:33:53;95062.33;;;22.15;35.06
48156;BME280;35568;48.104;11.782;2023-05-22T06:36:20;95065.54;;;22.07;35.04
48156;BME280;35568;48.104;11.782;2023-05-22T06:38:47;95069.39;;;21.97;35.79
48156;BME280;35568;48.104;11.782;2023-05-22T06:41:14;95068.15;;;21.93;35.18
48156;BME280;35568;48.104;11.782;2023-05-22T06:43:41;95071.89;;;22.33;34.99
48156;BME280;35568;48.104;11.782;2023-05-22T06:46:08;95072.21;;;22.52;34.55
48156;BME280;35568;48.104;11.782;2023-05-22T06:48:35;95069.64;;;22.35;34.08
48156;BME280;35568;48.104;11.782;2023-05-22T06:51:02;95072.19;;;22.08;35.09
48156;BME280;35568;48.104;11.782;2023-05-22T06:53:29;95071.76;;;22.51;34.33
48156;BME280;35568;48.104;11.782;2023-05-22T06:55:56;95072.22;;;22.60;34.55
48156;BME280;35568;48.104;11.782;2023-05-22T06:58:23;95074.24;;;21.67;33.77
48156;BME280;35568;48.104;11.782;2023-05-22T07:00:50;95077.60;;;23.34;33.26
48156;BME280;35568;48.104;11.782;2023-05-22T07:03:17;95080.28;;;23.69;32.75
48156;BME280;35568;48.104;11.782;2023-05-22T07:05:44;95084.26;;;23.77;32.74
48156;BME280;35568;48.104;11.782;2023-05-22T07:08:11;95082.87;;;23.89;33.00
48156;BME280;35568;48.104;11.782;2023-05-22T07:10:37;95083.18;;;23.44;32.16
48156;BME280;35568;48.104;11.782;2023-05-22T07:13:05;95086.52;;;23.50;32.30
48156;BME280;35568;48.104;11.782;2023-05-22T07:15:31;95086.98;;;23.45;32.87
48156;BME280;35568;48.104;11.782;2023-05-22T07:17:58;95087.06;;;23.56;33.14
48156;BME280;35568;48.104;11.782;2023-05-22T07:20:26;95087.71;;;24.00;32.43
48156;BME280;35568;48.104;11.782;2023-05-22T07:22:52;95089.06;;;23.78;32.41
48156;BME280;35568;48.104;11.782;2023-05-22T07:25:20;95090.59;;;23.92;32.86
48156;BME280;35568;48.104;11.782;2023-05-22T07:27:46;95090.31;;;24.16;31.98
48156;BME280;35568;48.104;11.782;2023-05-22T07:30:13;95091.15;;;24.00;31.91
48156;BME280;35568;48.104;11.782;2023-05-22T07:32:40;95091.68;;;24.24;32.11
48156;BME280;35568;48.104;11.782;2023-05-22T07:35:07;95093.44;;;24.31;31.77
48156;BME280;35568;48.104;11.782;2023-05-22T07:37:34;95093.91;;;24.21;31.58
48156;BME280;35568;48.104;11.782;2023-05-22T07:40:02;95091.77;;;25.20;31.08
48156;BME280;35568;48.104;11.782;2023-05-22T07:42:29;95092.78;;;25.52;31.14
48156;BME280;35568;48.104;11.782;2023-05-22T07:44:56;95091.03;;;25.63;30.58
48156;BME280;35568;48.104;11.782;2023-05-22T07:47:23;95093.77;;;25.48;30.34
48156;BME280;35568;48.104;11.782;2023-05-22T07:49:50;95094.03;;;26.50;29.65
48156;BME280;35568;48.104;11.782;2023-05-22T07:52:17;95094.64;;;26.60;29.30
48156;BME280;35568;48.104;11.782;2023-05-22T07:54:43;95093.58;;;26.72;29.31
48156;BME280;35568;48.104;11.782;2023-05-22T07:57:10;95094.23;;;26.79;29.68
48156;BME280;35568;48.104;11.782;2023-05-22T07:59:37;95091.86;;;27.07;29.28
48156;BME280;35568;48.104;11.782;2023-05-22T08:02:04;95092.24;;;26.87;28.51
48156;BME280;35568;48.104;11.782;2023-05-22T08:04:31;95092.40;;;26.70;28.66
48156;BME280;35568;48.104;11.782;2023-05-22T08:06:58;95088.13;;;26.80;28.62
48156;BME280;35568;48.104;11.782;2023-05-22T08:09:25;95087.09;;;27.00;28.53
48156;BME280;35568;48.104;11.782;2023-05-22T08:11:52;95082.94;;;26.99;28.21
48156;BME280;35568;48.104;11.782;2023-05-22T08:14:20;95081.15;;;26.73;28.39
48156;BME280;35568;48.104;11.782;2023-05-22T08:16:48;95074.82;;;26.84;28.53
48156;BME280;35568;48.104;11.782;2023-05-22T08:19:14;95081.64;;;26.78;29.48
48156;BME280;35568;48.104;11.782;2023-05-22T08:21:41;95073.52;;;27.64;29.11
48156;BME280;35568;48.104;11.782;2023-05-22T08:24:08;95073.88;;;27.54;28.59
48156;BME280;35568;48.104;11.782;2023-05-22T08:26:40;95074.29;;;27.84;28.16
48156;BME280;35568;48.104;11.782;2023-05-22T08:29:07;95071.41;;;28.09;27.77
48156;BME280;35568;48.104;11.782;2023-05-22T08:31:34;95071.80;;;27.26;27.91
48156;BME280;35568;48.104;11.782;2023-05-22T08:34:01;95073.99;;;28.28;28.41
48156;BME280;35568;48.104;11.782;2023-05-22T08:36:29;95070.67;;;28.43;28.09
48156;BME280;35568;48.104;11.782;2023-05-22T08:38:56;95069.47;;;28.78;27.64
48156;BME280;35568;48.104;11.782;2023-05-22T08:41:23;95071.30;;;28.90;27.51
48156;BME280;35568;48.104;11.782;2023-05-22T08:43:50;95069.84;;;28.84;27.06
48156;BME280;35568;48.104;11.782;2023-05-22T08:46:17;95068.65;;;29.21;26.99
48156;BME280;35568;48.104;11.782;2023-05-22T08:48:44;95068.21;;;29.72;25.72
48156;BME280;35568;48.104;11.782;2023-05-22T08:51:12;95064.35;;;30.21;26.16
48156;BME280;35568;48.104;11.782;2023-05-22T08:53:42;95067.96;;;30.21;26.33
48156;BME280;35568;48.104;11.782;2023-05-22T08:56:16;95065.78;;;30.39;25.55
48156;BME280;35568;48.104;11.782;2023-05-22T08:58:43;95061.28;;;30.52;25.77
48156;BME280;35568;48.104;11.782;2023-05-22T09:01:10;95054.99;;;30.72;24.96
48156;BME280;35568;48.104;11.782;2023-05-22T09:03:39;95057.70;;;31.30;24.49
48156;BME280;35568;48.104;11.782;2023-05-22T09:06:06;95060.17;;;31.13;25.05
48156;BME280;35568;48.104;11.782;2023-05-22T09:08:34;95055.59;;;30.95;24.20
48156;BME280;35568;48.104;11.782;2023-05-22T09:11:00;95056.77;;;31.39;24.54
48156;BME280;35568;48.104;11.782;2023-05-22T09:13:28;95057.98;;;30.82;24.56
48156;BME280;35568;48.104;11.782;2023-05-22T09:15:57;95059.07;;;30.66;24.31
48156;BME280;35568;48.104;11.782;2023-05-22T09:18:26;95062.10;;;30.27;24.98
48156;BME280;35568;48.104;11.782;2023-05-22T09:20:56;95062.95;;;30.87;25.95
48156;BME280;35568;48.104;11.782;2023-05-22T09:23:23;95060.68;;;31.61;23.97
48156;BME280;35568;48.104;11.782;2023-05-22T09:25:54;95061.20;;;32.16;23.52
48156;BME280;35568;48.104;11.782;2023-05-22T09:28:22;95061.04;;;32.27;24.12
48156;BME280;35568;48.104;11.782;2023-05-22T09:30:49;95056.70;;;32.27;23.35
48156;BME280;35568;48.104;11.782;2023-05-22T09:33:16;95058.05;;;32.23;23.22
48156;BME280;35568;48.104;11.782;2023-05-22T09:35:45;95055.11;;;32.45;23.01
48156;BME280;35568;48.104;11.782;2023-05-22T09:38:12;95053.35;;;32.85;22.44
48156;BME280;35568;48.104;11.782;2023-05-22T09:40:39;95052.35;;;33.74;22.35
48156;BME280;35568;48.104;11.782;2023-05-22T09:43:07;95053.03;;;33.55;22.13
48156;BME280;35568;48.104;11.782;2023-05-22T09:45:35;95054.03;;;33.48;21.67
48156;BME280;35568;48.104;11.782;2023-05-22T09:48:02;95057.93;;;32.77;22.45
48156;BME280;35568;48.104;11.782;2023-05-22T09:50:30;95052.60;;;32.54;22.63
48156;BME280;35568;48.104;11.782;2023-05-22T09:53:00;95053.71;;;32.72;22.80
48156;BME280;35568;48.104;11.782;2023-05-22T09:55:28;95054.97;;;33.11;23.10
48156;BME280;35568;48.104;11.782;2023-05-22T09:57:56;95060.43;;;33.04;22.27
48156;BME280;35568;48.104;11.782;2023-05-22T10:00:26;95056.67;;;33.22;22.46
48156;BME280;35568;48.104;11.782;2023-05-22T10:02:57;95057.61;;;33.14;22.30
48156;BME280;35568;48.104;11.782;2023-05-22T10:05:30;95058.68;;;33.70;22.02
48156;BME280;35568;48.104;11.782;2023-05-22T10:08:03;95056.17;;;34.17;21.47
48156;BME280;35568;48.104;11.782;2023-05-22T10:10:33;95056.47;;;33.53;21.69
48156;BME280;35568;48.104;11.782;2023-05-22T10:13:03;95057.84;;;33.73;21.62
48156;BME280;35568;48.104;11.782;2023-05-22T10:15:30;95056.43;;;33.16;22.34
48156;BME280;35568;48.104;11.782;2023-05-22T10:17:58;95056.01;;;32.60;23.35
48156;BME280;35568;48.104;11.782;2023-05-22T10:20:26;95051.94;;;33.00;22.75
48156;BME280;35568;48.104;11.782;2023-05-22T10:22:54;95048.10;;;33.44;23.35
48156;BME280;35568;48.104;11.782;2023-05-22T10:25:21;95048.88;;;34.30;22.09
48156;BME280;35568;48.104;11.782;2023-05-22T10:27:51;95048.00;;;34.16;21.63
48156;BME280;35568;48.104;11.782;2023-05-22T10:30:25;95050.31;;;34.16;21.48
48156;BME280;35568;48.104;11.782;2023-05-22T10:32:59;95046.03;;;34.21;22.31
48156;BME280;35568;48.104;11.782;2023-05-22T10:35:37;95044.32;;;33.90;21.69
48156;BME280;35568;48.104;11.782;2023-05-22T10:38:20;95045.49;;;34.85;22.12
48156;BME280;35568;48.104;11.782;2023-05-22T10:40:52;95046.30;;;34.37;21.41
48156;BME280;35568;48.104;11.782;2023-05-22T10:43:20;95044.44;;;34.49;22.32
48156;BME280;35568;48.104;11.782;2023-05-22T10:45:47;95045.41;;;34.41;22.06
48156;BME280;35568;48.104;11.782;2023-05-22T10:48:14;95044.35;;;35.24;21.63
48156;BME280;35568;48.104;11.782;2023-05-22T10:50:50;95041.46;;;34.87;21.82
48156;BME280;35568;48.104;11.782;2023-05-22T10:53:19;95041.93;;;34.94;21.14
48156;BME280;35568;48.104;11.782;2023-05-22T10:55:46;95038.49;;;35.04;21.22
48156;BME280;35568;48.104;11.782;2023-05-22T10:58:14;95037.68;;;35.29;21.85
48156;BME280;35568;48.104;11.782;2023-05-22T11:00:41;95033.13;;;35.33;21.77
48156;BME280;35568;48.104;11.782;2023-05-22T11:03:08;95033.61;;;35.84;21.04
48156;BME280;35568;48.104;11.782;2023-05-22T11:05:35;95033.70;;;35.23;21.41
48156;BME280;35568;48.104;11.782;2023-05-22T11:08:35;95033.49;;;35.33;21.76
48156;BME280;35568;48.104;11.782;2023-05-22T11:11:24;95026.06;;;36.14;21.58
48156;BME280;35568;48.104;11.782;2023-05-22T11:13:51;95023.10;;;35.48;21.19
48156;BME280;35568;48.104;11.782;2023-05-22T11:16:18;95025.29;;;35.27;21.91
48156;BME280;35568;48.104;11.782;2023-05-22T11:18:45;95025.23;;;34.92;21.47
48156;BME280;35568;48.104;11.782;2023-05-22T11:21:17;95029.33;;;35.35;21.59
48156;BME280;35568;48.104;11.782;2023-05-22T11:23:44;95023.86;;;36.39;20.75
48156;BME280;35568;48.104;11.782;2023-05-22T11:26:19;95026.41;;;35.03;21.17
48156;BME280;35568;48.104;11.782;2023-05-22T11:28:48;95023.49;;;35.35;21.51
48156;BME280;35568;48.104;11.782;2023-05-22T11:31:16;95028.05;;;35.03;21.97
48156;BME280;35568;48.104;11.782;2023-05-22T11:33:45;95021.53;;;35.12;21.83
48156;BME280;35568;48.104;11.782;2023-05-22T11:36:12;95017.41;;;36.30;20.92
48156;BME280;35568;48.104;11.782;2023-05-22T11:38:39;95015.13;;;35.95;21.08
48156;BME280;35568;48.104;11.782;2023-05-22T11:41:08;95016.22;;;35.88;20.56
48156;BME280;35568;48.104;11.782;2023-05-22T11:43:36;95013.49;;;35.77;21.21
48156;BME280;35568;48.104;11.782;2023-05-22T11:46:05;95012.44;;;35.54;20.82
48156;BME280;35568;48.104;11.782;2023-05-22T11:48:33;95013.68;;;34.91;22.02
48156;BME280;35568;48.104;11.782;2023-05-22T11:51:01;95010.21;;;35.44;21.69
48156;BME280;35568;48.104;11.782;2023-05-22T11:53:29;95008.52;;;34.75;21.79
48156;BME280;35568;48.104;11.782;2023-05-22T11:56:01;95008.11;;;35.03;22.31
48156;BME280;35568;48.104;11.782;2023-05-22T11:58:27;95004.13;;;34.76;22.41
48156;BME280;35568;48.104;11.782;2023-05-22T12:00:57;95012.20;;;34.25;22.23
48156;BME280;35568;48.104;11.782;2023-05-22T12:03:24;95007.81;;;34.79;21.76
48156;BME280;35568;48.104;11.782;2023-05-22T12:05:52;95011.57;;;34.38;22.33
48156;BME280;35568;48.104;11.782;2023-05-22T12:08:19;95012.01;;;34.25;22.53
48156;BME280;35568;48.104;11.782;2023-05-22T12:10:46;95009.66;;;34.83;22.36
48156;BME280;35568;48.104;11.782;2023-05-22T12:13:14;95005.89;;;34.87;22.01
48156;BME280;35568;48.104;11.782;2023-05-22T12:15:41;95005.02;;;34.92;22.54
48156;BME280;35568;48.104;11.782;2023-05-22T12:18:08;95001.36;;;35.62;21.40
48156;BME280;35568;48.104;11.782;2023-05-22T12:20:41;95006.62;;;35.45;21.70
48156;BME280;35568;48.104;11.782;2023-05-22T12:23:10;95001.68;;;35.46;21.38
48156;BME280;35568;48.104;11.782;2023-05-22T12:25:37;94997.19;;;35.48;21.21
48156;BME280;35568;48.104;11.782;2023-05-22T12:28:05;94994.95;;;34.66;21.95
48156;BME280;35568;48.104;11.782;2023-05-22T12:30:39;94991.45;;;35.04;22.02
48156;BME280;35568;48.104;11.782;2023-05-22T12:33:11;94994.47;;;35.43;21.21
48156;BME280;35568;48.104;11.782;2023-05-22T12:35:39;94997.15;;;35.06;21.38
48156;BME280;35568;48.104;11.782;2023-05-22T12:38:06;94990.34;;;35.22;21.71
48156;BME280;35568;48.104;11.782;2023-05-22T12:40:34;94989.54;;;35.46;21.67
48156;BME280;35568;48.104;11.782;2023-05-22T12:43:01;94990.88;;;36.07;20.62
48156;BME280;35568;48.104;11.782;2023-05-22T12:45:28;94988.50;;;34.83;21.30
48156;BME280;35568;48.104;11.782;2023-05-22T12:47:56;94983.87;;;35.00;21.61
48156;BME280;35568;48.104;11.782;2023-05-22T12:50:23;94979.17;;;35.14;21.30
48156;BME280;35568;48.104;11.782;2023-05-22T12:52:49;94977.81;;;35.96;20.27
48156;BME280;35568;48.104;11.782;2023-05-22T12:55:16;94973.92;;;35.06;20.95